sensor_id;sensor_type;location;lat;lon;timestamp;P1;durP1;ratioP1;P2;durP2;ratioP2
56752;SDS011;42627;42.646;23.642;2022-07-05T00:01:02;3.08;;;1.80;;
56752;SDS011;42627;42.646;23.642;2022-07-05T00:03:03;1.85;;;1.25;;
56752;SDS011;42627;42.646;23.642;2022-07-05T00:05:04;2.40;;;1.10;;
56752;SDS011;42627;42.646;23.642;2022-07-05T00:07:05;2.22;;;1.40;;
56752;SDS011;42627;42.646;23.642;2022-07-05T00:09:21;3.10;;;1.52;;
56752;SDS011;42627;42.646;23.642;2022-07-05T00:11:22;2.92;;;1.50;;
56752;SDS011;42627;42.646;23.642;2022-07-05T00:13:22;3.25;;;1.20;;
56752;SDS011;42627;42.646;23.642;2022-07-05T00:15:41;3.42;;;1.60;;
56752;SDS011;42627;42.646;23.642;2022-07-05T00:17:42;3.33;;;1.50;;
56752;SDS011;42627;42.646;23.642;2022-07-05T00:19:42;2.90;;;1.40;;
56752;SDS011;42627;42.646;23.642;2022-07-05T00:21:43;2.88;;;1.15;;
56752;SDS011;42627;42.646;23.642;2022-07-05T00:23:44;2.65;;;1.35;;
56752;SDS011;42627;42.646;23.642;2022-07-05T00:25:55;3.10;;;1.17;;
56752;SDS011;42627;42.646;23.642;2022-07-05T00:30:35;3.15;;;1.30;;
56752;SDS011;42627;42.646;23.642;2022-07-05T00:32:36;3.45;;;1.55;;
56752;SDS011;42627;42.646;23.642;2022-07-05T00:34:37;2.72;;;1.35;;
56752;SDS011;42627;42.646;23.642;2022-07-05T00:36:38;3.38;;;1.45;;
56752;SDS011;42627;42.646;23.642;2022-07-05T00:38:39;5.72;;;1.70;;
56752;SDS011;42627;42.646;23.642;2022-07-05T00:40:39;4.85;;;1.60;;
56752;SDS011;42627;42.646;23.642;2022-07-05T00:42:42;2.60;;;1.23;;
56752;SDS011;42627;42.646;23.642;2022-07-05T00:44:43;3.08;;;1.45;;
56752;SDS011;42627;42.646;23.642;2022-07-05T00:46:49;2.88;;;1.40;;
56752;SDS011;42627;42.646;23.642;2022-07-05T00:48:50;2.60;;;1.33;;
56752;SDS011;42627;42.646;23.642;2022-07-05T00:50:51;3.53;;;1.60;;
56752;SDS011;42627;42.646;23.642;2022-07-05T00:52:53;3.17;;;1.50;;
56752;SDS011;42627;42.646;23.642;2022-07-05T00:55:00;2.25;;;1.30;;
56752;SDS011;42627;42.646;23.642;2022-07-05T00:59:41;2.40;;;1.35;;
56752;SDS011;42627;42.646;23.642;2022-07-05T01:03:43;2.15;;;1.10;;
56752;SDS011;42627;42.646;23.642;2022-07-05T01:05:44;3.78;;;1.20;;
56752;SDS011;42627;42.646;23.642;2022-07-05T01:07:45;2.60;;;1.33;;
56752;SDS011;42627;42.646;23.642;2022-07-05T01:09:46;2.25;;;1.13;;
56752;SDS011;42627;42.646;23.642;2022-07-05T01:11:47;3.45;;;1.08;;
56752;SDS011;42627;42.646;23.642;2022-07-05T01:13:48;2.97;;;1.45;;
56752;SDS011;42627;42.646;23.642;2022-07-05T01:15:54;3.58;;;1.48;;
56752;SDS011;42627;42.646;23.642;2022-07-05T01:17:55;2.38;;;1.27;;
56752;SDS011;42627;42.646;23.642;2022-07-05T01:19:56;2.13;;;1.30;;
56752;SDS011;42627;42.646;23.642;2022-07-05T01:21:57;3.45;;;1.70;;
56752;SDS011;42627;42.646;23.642;2022-07-05T01:24:03;2.75;;;1.55;;
56752;SDS011;42627;42.646;23.642;2022-07-05T01:26:06;2.08;;;1.10;;
56752;SDS011;42627;42.646;23.642;2022-07-05T01:30:41;2.03;;;1.30;;
56752;SDS011;42627;42.646;23.642;2022-07-05T01:32:42;2.13;;;1.17;;
56752;SDS011;42627;42.646;23.642;2022-07-05T01:34:43;3.45;;;1.50;;
56752;SDS011;42627;42.646;23.642;2022-07-05T01:36:44;2.25;;;1.08;;
56752;SDS011;42627;42.646;23.642;2022-07-05T01:38:45;4.60;;;1.52;;
56752;SDS011;42627;42.646;23.642;2022-07-05T01:40:46;2.53;;;1.58;;
56752;SDS011;42627;42.646;23.642;2022-07-05T01:42:50;2.83;;;1.50;;
56752;SDS011;42627;42.646;23.642;2022-07-05T01:45:00;2.92;;;1.25;;
56752;SDS011;42627;42.646;23.642;2022-07-05T01:47:04;4.93;;;1.95;;
56752;SDS011;42627;42.646;23.642;2022-07-05T01:51:22;4.22;;;1.90;;
56752;SDS011;42627;42.646;23.642;2022-07-05T01:53:33;2.22;;;1.20;;
56752;SDS011;42627;42.646;23.642;2022-07-05T02:00:47;2.60;;;1.38;;
56752;SDS011;42627;42.646;23.642;2022-07-05T02:02:49;2.97;;;1.20;;
56752;SDS011;42627;42.646;23.642;2022-07-05T02:04:51;1.58;;;1.00;;
56752;SDS011;42627;42.646;23.642;2022-07-05T02:06:51;1.73;;;1.08;;
56752;SDS011;42627;42.646;23.642;2022-07-05T02:08:52;2.70;;;1.40;;
56752;SDS011;42627;42.646;23.642;2022-07-05T02:10:53;2.03;;;1.20;;
56752;SDS011;42627;42.646;23.642;2022-07-05T02:12:53;2.22;;;1.27;;
56752;SDS011;42627;42.646;23.642;2022-07-05T02:14:59;2.20;;;1.20;;
56752;SDS011;42627;42.646;23.642;2022-07-05T02:17:00;3.35;;;1.60;;
56752;SDS011;42627;42.646;23.642;2022-07-05T02:19:01;3.20;;;1.08;;
56752;SDS011;42627;42.646;23.642;2022-07-05T02:21:02;2.92;;;1.40;;
56752;SDS011;42627;42.646;23.642;2022-07-05T02:23:03;1.90;;;1.00;;
56752;SDS011;42627;42.646;23.642;2022-07-05T02:30:11;2.47;;;1.48;;
56752;SDS011;42627;42.646;23.642;2022-07-05T02:32:12;2.55;;;1.58;;
56752;SDS011;42627;42.646;23.642;2022-07-05T02:34:13;3.15;;;1.40;;
56752;SDS011;42627;42.646;23.642;2022-07-05T02:36:13;2.60;;;1.50;;
56752;SDS011;42627;42.646;23.642;2022-07-05T02:38:14;3.42;;;1.70;;
56752;SDS011;42627;42.646;23.642;2022-07-05T02:40:15;2.22;;;1.30;;
56752;SDS011;42627;42.646;23.642;2022-07-05T02:42:16;2.47;;;1.23;;
56752;SDS011;42627;42.646;23.642;2022-07-05T02:46:27;3.38;;;1.40;;
56752;SDS011;42627;42.646;23.642;2022-07-05T02:48:27;3.38;;;1.58;;
56752;SDS011;42627;42.646;23.642;2022-07-05T02:50:28;2.80;;;1.33;;
56752;SDS011;42627;42.646;23.642;2022-07-05T02:52:29;2.90;;;1.60;;
56752;SDS011;42627;42.646;23.642;2022-07-05T02:54:29;5.85;;;1.40;;
56752;SDS011;42627;42.646;23.642;2022-07-05T02:56:30;2.90;;;1.40;;
56752;SDS011;42627;42.646;23.642;2022-07-05T02:58:31;3.17;;;1.45;;
56752;SDS011;42627;42.646;23.642;2022-07-05T03:03:08;2.05;;;1.08;;
56752;SDS011;42627;42.646;23.642;2022-07-05T03:05:15;3.03;;;1.52;;
56752;SDS011;42627;42.646;23.642;2022-07-05T03:07:16;3.97;;;1.40;;
56752;SDS011;42627;42.646;23.642;2022-07-05T03:09:17;2.63;;;1.63;;
56752;SDS011;42627;42.646;23.642;2022-07-05T03:11:17;2.47;;;1.20;;
56752;SDS011;42627;42.646;23.642;2022-07-05T03:13:20;4.40;;;1.60;;
56752;SDS011;42627;42.646;23.642;2022-07-05T03:15:20;2.55;;;1.67;;
56752;SDS011;42627;42.646;23.642;2022-07-05T03:17:21;1.83;;;1.40;;
56752;SDS011;42627;42.646;23.642;2022-07-05T03:19:26;5.65;;;1.52;;
56752;SDS011;42627;42.646;23.642;2022-07-05T03:23:27;2.20;;;1.13;;
56752;SDS011;42627;42.646;23.642;2022-07-05T03:25:28;4.10;;;1.92;;
56752;SDS011;42627;42.646;23.642;2022-07-05T03:27:29;2.30;;;1.42;;
56752;SDS011;42627;42.646;23.642;2022-07-05T03:29:34;1.98;;;1.23;;
56752;SDS011;42627;42.646;23.642;2022-07-05T03:34:08;1.35;;;1.00;;
56752;SDS011;42627;42.646;23.642;2022-07-05T03:36:09;3.05;;;1.40;;
56752;SDS011;42627;42.646;23.642;2022-07-05T03:38:10;2.92;;;1.17;;
56752;SDS011;42627;42.646;23.642;2022-07-05T03:40:11;2.25;;;1.17;;
56752;SDS011;42627;42.646;23.642;2022-07-05T03:42:11;2.63;;;1.38;;
56752;SDS011;42627;42.646;23.642;2022-07-05T03:44:12;2.35;;;1.20;;
56752;SDS011;42627;42.646;23.642;2022-07-05T03:46:13;3.15;;;1.40;;
56752;SDS011;42627;42.646;23.642;2022-07-05T03:50:24;2.20;;;1.13;;
56752;SDS011;42627;42.646;23.642;2022-07-05T03:52:25;2.55;;;1.40;;
56752;SDS011;42627;42.646;23.642;2022-07-05T03:54:25;2.83;;;1.35;;
56752;SDS011;42627;42.646;23.642;2022-07-05T03:56:26;2.72;;;1.77;;
56752;SDS011;42627;42.646;23.642;2022-07-05T03:58:36;8.13;;;1.95;;
56752;SDS011;42627;42.646;23.642;2022-07-05T04:03:15;3.40;;;1.85;;
56752;SDS011;42627;42.646;23.642;2022-07-05T04:05:16;3.95;;;1.80;;
56752;SDS011;42627;42.646;23.642;2022-07-05T04:07:16;3.40;;;1.63;;
56752;SDS011;42627;42.646;23.642;2022-07-05T04:09:17;3.40;;;1.45;;
56752;SDS011;42627;42.646;23.642;2022-07-05T04:11:18;2.70;;;1.55;;
56752;SDS011;42627;42.646;23.642;2022-07-05T04:13:18;2.88;;;1.70;;
56752;SDS011;42627;42.646;23.642;2022-07-05T04:15:19;2.63;;;1.27;;
56752;SDS011;42627;42.646;23.642;2022-07-05T04:17:20;2.35;;;1.23;;
56752;SDS011;42627;42.646;23.642;2022-07-05T04:19:26;3.15;;;1.30;;
56752;SDS011;42627;42.646;23.642;2022-07-05T04:21:27;2.30;;;1.20;;
56752;SDS011;42627;42.646;23.642;2022-07-05T04:23:27;2.67;;;1.42;;
56752;SDS011;42627;42.646;23.642;2022-07-05T04:25:28;2.30;;;1.10;;
56752;SDS011;42627;42.646;23.642;2022-07-05T04:27:29;2.58;;;1.30;;
56752;SDS011;42627;42.646;23.642;2022-07-05T04:32:02;2.65;;;1.10;;
56752;SDS011;42627;42.646;23.642;2022-07-05T04:34:12;1.83;;;1.20;;
56752;SDS011;42627;42.646;23.642;2022-07-05T04:36:12;3.10;;;1.20;;
56752;SDS011;42627;42.646;23.642;2022-07-05T04:38:13;2.22;;;1.00;;
56752;SDS011;42627;42.646;23.642;2022-07-05T04:40:14;4.05;;;1.55;;
56752;SDS011;42627;42.646;23.642;2022-07-05T04:42:15;2.28;;;1.08;;
56752;SDS011;42627;42.646;23.642;2022-07-05T04:44:16;1.67;;;0.80;;
56752;SDS011;42627;42.646;23.642;2022-07-05T04:46:16;4.55;;;1.20;;
56752;SDS011;42627;42.646;23.642;2022-07-05T04:48:17;2.85;;;1.27;;
56752;SDS011;42627;42.646;23.642;2022-07-05T04:50:17;1.67;;;1.10;;
56752;SDS011;42627;42.646;23.642;2022-07-05T04:52:18;1.67;;;1.13;;
56752;SDS011;42627;42.646;23.642;2022-07-05T04:54:19;2.72;;;1.40;;
56752;SDS011;42627;42.646;23.642;2022-07-05T04:56:20;2.70;;;1.10;;
56752;SDS011;42627;42.646;23.642;2022-07-05T04:58:20;2.50;;;1.40;;
56752;SDS011;42627;42.646;23.642;2022-07-05T05:00:21;2.53;;;1.30;;
56752;SDS011;42627;42.646;23.642;2022-07-05T05:02:21;1.73;;;1.00;;
56752;SDS011;42627;42.646;23.642;2022-07-05T05:04:28;2.38;;;1.23;;
56752;SDS011;42627;42.646;23.642;2022-07-05T05:06:44;1.63;;;1.00;;
56752;SDS011;42627;42.646;23.642;2022-07-05T05:11:04;3.38;;;1.00;;
56752;SDS011;42627;42.646;23.642;2022-07-05T05:13:05;1.40;;;0.90;;
56752;SDS011;42627;42.646;23.642;2022-07-05T05:15:06;2.38;;;1.25;;
56752;SDS011;42627;42.646;23.642;2022-07-05T05:17:10;2.67;;;1.30;;
56752;SDS011;42627;42.646;23.642;2022-07-05T05:19:11;1.95;;;1.02;;
56752;SDS011;42627;42.646;23.642;2022-07-05T05:21:11;1.77;;;0.90;;
56752;SDS011;42627;42.646;23.642;2022-07-05T05:23:12;3.58;;;1.13;;
56752;SDS011;42627;42.646;23.642;2022-07-05T05:25:13;11.63;;;1.65;;
56752;SDS011;42627;42.646;23.642;2022-07-05T05:27:14;9.93;;;1.50;;
56752;SDS011;42627;42.646;23.642;2022-07-05T05:29:15;2.50;;;0.82;;
56752;SDS011;42627;42.646;23.642;2022-07-05T05:31:16;2.50;;;1.50;;
56752;SDS011;42627;42.646;23.642;2022-07-05T05:33:17;8.50;;;2.25;;
56752;SDS011;42627;42.646;23.642;2022-07-05T05:35:18;11.02;;;1.77;;
56752;SDS011;42627;42.646;23.642;2022-07-05T05:37:30;4.60;;;1.17;;
56752;SDS011;42627;42.646;23.642;2022-07-05T05:42:10;2.85;;;1.58;;
56752;SDS011;42627;42.646;23.642;2022-07-05T05:44:12;3.00;;;1.38;;
56752;SDS011;42627;42.646;23.642;2022-07-05T05:46:13;4.60;;;1.67;;
56752;SDS011;42627;42.646;23.642;2022-07-05T05:48:13;4.93;;;1.35;;
56752;SDS011;42627;42.646;23.642;2022-07-05T05:50:17;3.28;;;1.40;;
56752;SDS011;42627;42.646;23.642;2022-07-05T05:52:22;2.80;;;1.30;;
56752;SDS011;42627;42.646;23.642;2022-07-05T05:54:22;1.90;;;1.08;;
56752;SDS011;42627;42.646;23.642;2022-07-05T05:56:23;2.90;;;1.40;;
56752;SDS011;42627;42.646;23.642;2022-07-05T05:58:30;3.40;;;1.42;;
56752;SDS011;42627;42.646;23.642;2022-07-05T06:00:31;2.88;;;1.20;;
56752;SDS011;42627;42.646;23.642;2022-07-05T06:02:31;3.08;;;1.48;;
56752;SDS011;42627;42.646;23.642;2022-07-05T06:04:33;3.13;;;1.27;;
56752;SDS011;42627;42.646;23.642;2022-07-05T06:06:33;2.97;;;1.33;;
56752;SDS011;42627;42.646;23.642;2022-07-05T06:13:29;2.55;;;1.30;;
56752;SDS011;42627;42.646;23.642;2022-07-05T06:15:33;5.47;;;1.77;;
56752;SDS011;42627;42.646;23.642;2022-07-05T06:17:35;3.45;;;1.60;;
56752;SDS011;42627;42.646;23.642;2022-07-05T06:19:36;5.20;;;2.45;;
56752;SDS011;42627;42.646;23.642;2022-07-05T06:21:37;12.70;;;3.35;;
56752;SDS011;42627;42.646;23.642;2022-07-05T06:23:38;6.30;;;2.65;;
56752;SDS011;42627;42.646;23.642;2022-07-05T06:25:39;6.97;;;2.67;;
56752;SDS011;42627;42.646;23.642;2022-07-05T06:27:44;5.07;;;2.30;;
56752;SDS011;42627;42.646;23.642;2022-07-05T06:29:46;3.72;;;1.67;;
56752;SDS011;42627;42.646;23.642;2022-07-05T06:31:47;2.75;;;1.73;;
56752;SDS011;42627;42.646;23.642;2022-07-05T06:33:48;3.10;;;1.45;;
56752;SDS011;42627;42.646;23.642;2022-07-05T06:35:48;2.95;;;1.38;;
56752;SDS011;42627;42.646;23.642;2022-07-05T06:37:58;2.72;;;1.58;;
56752;SDS011;42627;42.646;23.642;2022-07-05T06:39:59;3.70;;;1.50;;
56752;SDS011;42627;42.646;23.642;2022-07-05T06:42:09;3.45;;;1.58;;
56752;SDS011;42627;42.646;23.642;2022-07-05T06:44:11;3.67;;;1.45;;
56752;SDS011;42627;42.646;23.642;2022-07-05T06:48:34;2.72;;;1.40;;
56752;SDS011;42627;42.646;23.642;2022-07-05T06:50:37;3.00;;;1.10;;
56752;SDS011;42627;42.646;23.642;2022-07-05T06:52:39;2.45;;;1.38;;
56752;SDS011;42627;42.646;23.642;2022-07-05T06:54:40;2.63;;;1.42;;
56752;SDS011;42627;42.646;23.642;2022-07-05T06:56:40;4.43;;;1.40;;
56752;SDS011;42627;42.646;23.642;2022-07-05T06:58:41;3.20;;;1.45;;
56752;SDS011;42627;42.646;23.642;2022-07-05T07:00:42;4.72;;;1.38;;
56752;SDS011;42627;42.646;23.642;2022-07-05T07:02:45;2.55;;;1.40;;
56752;SDS011;42627;42.646;23.642;2022-07-05T07:04:46;3.10;;;1.42;;
56752;SDS011;42627;42.646;23.642;2022-07-05T07:06:47;2.53;;;1.17;;
56752;SDS011;42627;42.646;23.642;2022-07-05T07:08:48;3.13;;;1.23;;
56752;SDS011;42627;42.646;23.642;2022-07-05T07:11:08;5.13;;;1.23;;
56752;SDS011;42627;42.646;23.642;2022-07-05T07:13:20;1.80;;;1.02;;
56752;SDS011;42627;42.646;23.642;2022-07-05T07:15:39;2.55;;;1.52;;
56752;SDS011;42627;42.646;23.642;2022-07-05T07:18:08;3.22;;;1.30;;
56752;SDS011;42627;42.646;23.642;2022-07-05T07:20:09;1.45;;;1.00;;
56752;SDS011;42627;42.646;23.642;2022-07-05T07:22:10;2.47;;;1.23;;
56752;SDS011;42627;42.646;23.642;2022-07-05T07:24:11;1.95;;;1.30;;
56752;SDS011;42627;42.646;23.642;2022-07-05T07:26:12;3.75;;;1.88;;
56752;SDS011;42627;42.646;23.642;2022-07-05T07:28:13;4.55;;;1.48;;
56752;SDS011;42627;42.646;23.642;2022-07-05T07:30:15;2.63;;;1.42;;
56752;SDS011;42627;42.646;23.642;2022-07-05T07:32:17;2.65;;;1.35;;
56752;SDS011;42627;42.646;23.642;2022-07-05T07:34:18;4.05;;;1.55;;
56752;SDS011;42627;42.646;23.642;2022-07-05T07:36:19;3.20;;;1.52;;
56752;SDS011;42627;42.646;23.642;2022-07-05T07:38:20;2.08;;;1.30;;
56752;SDS011;42627;42.646;23.642;2022-07-05T07:40:21;2.55;;;1.40;;
56752;SDS011;42627;42.646;23.642;2022-07-05T07:42:22;4.55;;;1.63;;
56752;SDS011;42627;42.646;23.642;2022-07-05T07:44:23;2.05;;;1.25;;
56752;SDS011;42627;42.646;23.642;2022-07-05T07:46:33;4.10;;;1.48;;
56752;SDS011;42627;42.646;23.642;2022-07-05T07:48:34;2.05;;;1.40;;
56752;SDS011;42627;42.646;23.642;2022-07-05T07:50:35;3.10;;;1.42;;
56752;SDS011;42627;42.646;23.642;2022-07-05T07:52:36;3.75;;;1.23;;
56752;SDS011;42627;42.646;23.642;2022-07-05T07:54:38;3.28;;;1.42;;
56752;SDS011;42627;42.646;23.642;2022-07-05T07:56:44;2.60;;;1.10;;
56752;SDS011;42627;42.646;23.642;2022-07-05T08:01:19;3.17;;;1.48;;
56752;SDS011;42627;42.646;23.642;2022-07-05T08:03:20;2.60;;;1.60;;
56752;SDS011;42627;42.646;23.642;2022-07-05T08:05:21;2.13;;;1.33;;
56752;SDS011;42627;42.646;23.642;2022-07-05T08:07:21;2.72;;;1.50;;
56752;SDS011;42627;42.646;23.642;2022-07-05T08:09:22;2.92;;;1.48;;
56752;SDS011;42627;42.646;23.642;2022-07-05T08:11:23;2.42;;;1.38;;
56752;SDS011;42627;42.646;23.642;2022-07-05T08:13:23;4.32;;;1.40;;
56752;SDS011;42627;42.646;23.642;2022-07-05T08:15:24;3.13;;;1.60;;
56752;SDS011;42627;42.646;23.642;2022-07-05T08:17:28;4.70;;;1.70;;
56752;SDS011;42627;42.646;23.642;2022-07-05T08:19:29;2.30;;;1.40;;
56752;SDS011;42627;42.646;23.642;2022-07-05T08:21:48;3.42;;;1.50;;
56752;SDS011;42627;42.646;23.642;2022-07-05T08:23:49;3.05;;;1.60;;
56752;SDS011;42627;42.646;23.642;2022-07-05T08:25:50;2.08;;;1.20;;
56752;SDS011;42627;42.646;23.642;2022-07-05T08:33:30;6.65;;;1.58;;
56752;SDS011;42627;42.646;23.642;2022-07-05T08:35:31;3.72;;;1.90;;
56752;SDS011;42627;42.646;23.642;2022-07-05T08:37:31;3.15;;;1.35;;
56752;SDS011;42627;42.646;23.642;2022-07-05T08:39:32;4.50;;;1.70;;
56752;SDS011;42627;42.646;23.642;2022-07-05T08:41:40;3.10;;;1.70;;
56752;SDS011;42627;42.646;23.642;2022-07-05T08:43:42;2.80;;;1.38;;
56752;SDS011;42627;42.646;23.642;2022-07-05T08:45:45;9.23;;;1.73;;
56752;SDS011;42627;42.646;23.642;2022-07-05T08:47:47;2.55;;;1.45;;
56752;SDS011;42627;42.646;23.642;2022-07-05T08:49:50;2.65;;;1.52;;
56752;SDS011;42627;42.646;23.642;2022-07-05T08:51:53;2.40;;;1.35;;
56752;SDS011;42627;42.646;23.642;2022-07-05T08:53:55;2.33;;;1.40;;
56752;SDS011;42627;42.646;23.642;2022-07-05T08:55:56;2.35;;;1.40;;
56752;SDS011;42627;42.646;23.642;2022-07-05T08:57:59;3.92;;;1.70;;
56752;SDS011;42627;42.646;23.642;2022-07-05T09:00:01;2.05;;;1.33;;
56752;SDS011;42627;42.646;23.642;2022-07-05T09:02:02;4.15;;;1.90;;
56752;SDS011;42627;42.646;23.642;2022-07-05T09:04:06;3.05;;;1.70;;
56752;SDS011;42627;42.646;23.642;2022-07-05T09:06:10;3.70;;;1.65;;
56752;SDS011;42627;42.646;23.642;2022-07-05T09:08:13;3.87;;;1.63;;
56752;SDS011;42627;42.646;23.642;2022-07-05T09:10:15;3.00;;;1.70;;
56752;SDS011;42627;42.646;23.642;2022-07-05T09:12:18;3.22;;;1.58;;
56752;SDS011;42627;42.646;23.642;2022-07-05T09:14:20;3.22;;;1.75;;
56752;SDS011;42627;42.646;23.642;2022-07-05T09:16:35;3.28;;;1.88;;
56752;SDS011;42627;42.646;23.642;2022-07-05T09:21:27;2.53;;;1.45;;
56752;SDS011;42627;42.646;23.642;2022-07-05T09:23:28;3.60;;;1.98;;
56752;SDS011;42627;42.646;23.642;2022-07-05T09:25:31;3.72;;;1.65;;
56752;SDS011;42627;42.646;23.642;2022-07-05T09:27:32;4.38;;;2.40;;
56752;SDS011;42627;42.646;23.642;2022-07-05T09:29:33;3.45;;;1.50;;
56752;SDS011;42627;42.646;23.642;2022-07-05T09:31:34;3.85;;;1.67;;
56752;SDS011;42627;42.646;23.642;2022-07-05T09:33:43;3.65;;;2.15;;
56752;SDS011;42627;42.646;23.642;2022-07-05T09:35:58;3.72;;;1.90;;
56752;SDS011;42627;42.646;23.642;2022-07-05T09:37:59;4.55;;;2.22;;
56752;SDS011;42627;42.646;23.642;2022-07-05T09:40:03;13.45;;;2.97;;
56752;SDS011;42627;42.646;23.642;2022-07-05T09:42:20;4.50;;;1.83;;
56752;SDS011;42627;42.646;23.642;2022-07-05T09:44:24;4.45;;;2.17;;
56752;SDS011;42627;42.646;23.642;2022-07-05T09:51:46;4.13;;;2.42;;
56752;SDS011;42627;42.646;23.642;2022-07-05T09:53:49;4.05;;;2.00;;
56752;SDS011;42627;42.646;23.642;2022-07-05T09:56:02;4.45;;;2.08;;
56752;SDS011;42627;42.646;23.642;2022-07-05T09:58:04;4.28;;;2.35;;
56752;SDS011;42627;42.646;23.642;2022-07-05T10:00:06;3.63;;;2.20;;
56752;SDS011;42627;42.646;23.642;2022-07-05T10:02:08;3.42;;;1.98;;
56752;SDS011;42627;42.646;23.642;2022-07-05T10:04:09;3.38;;;2.03;;
56752;SDS011;42627;42.646;23.642;2022-07-05T10:06:14;3.60;;;1.95;;
56752;SDS011;42627;42.646;23.642;2022-07-05T10:08:15;2.83;;;1.95;;
56752;SDS011;42627;42.646;23.642;2022-07-05T10:10:20;5.25;;;2.20;;
56752;SDS011;42627;42.646;23.642;2022-07-05T10:12:22;4.00;;;2.13;;
56752;SDS011;42627;42.646;23.642;2022-07-05T10:14:23;4.88;;;2.05;;
56752;SDS011;42627;42.646;23.642;2022-07-05T10:16:50;3.53;;;2.17;;
56752;SDS011;42627;42.646;23.642;2022-07-05T10:19:20;3.05;;;1.85;;
56752;SDS011;42627;42.646;23.642;2022-07-05T10:21:26;4.30;;;2.20;;
56752;SDS011;42627;42.646;23.642;2022-07-05T10:23:27;3.58;;;2.20;;
56752;SDS011;42627;42.646;23.642;2022-07-05T10:25:29;7.00;;;3.33;;
56752;SDS011;42627;42.646;23.642;2022-07-05T10:27:31;3.83;;;2.28;;
56752;SDS011;42627;42.646;23.642;2022-07-05T10:29:35;3.40;;;1.93;;
56752;SDS011;42627;42.646;23.642;2022-07-05T10:31:36;4.60;;;2.67;;
56752;SDS011;42627;42.646;23.642;2022-07-05T10:33:38;5.25;;;2.80;;
56752;SDS011;42627;42.646;23.642;2022-07-05T10:35:45;4.40;;;2.45;;
56752;SDS011;42627;42.646;23.642;2022-07-05T10:37:46;4.75;;;2.67;;
56752;SDS011;42627;42.646;23.642;2022-07-05T10:39:47;5.57;;;2.75;;
56752;SDS011;42627;42.646;23.642;2022-07-05T10:41:48;6.40;;;2.90;;
56752;SDS011;42627;42.646;23.642;2022-07-05T10:43:53;5.13;;;2.85;;
56752;SDS011;42627;42.646;23.642;2022-07-05T10:51:25;5.50;;;3.05;;
56752;SDS011;42627;42.646;23.642;2022-07-05T10:53:27;4.50;;;2.83;;
56752;SDS011;42627;42.646;23.642;2022-07-05T10:55:28;5.10;;;2.75;;
56752;SDS011;42627;42.646;23.642;2022-07-05T10:57:28;8.57;;;2.78;;
56752;SDS011;42627;42.646;23.642;2022-07-05T10:59:30;5.15;;;2.70;;
56752;SDS011;42627;42.646;23.642;2022-07-05T11:02:13;5.88;;;2.95;;
56752;SDS011;42627;42.646;23.642;2022-07-05T11:11:11;4.65;;;2.65;;
56752;SDS011;42627;42.646;23.642;2022-07-05T11:21:22;5.28;;;3.00;;
56752;SDS011;42627;42.646;23.642;2022-07-05T11:23:26;4.28;;;2.88;;
56752;SDS011;42627;42.646;23.642;2022-07-05T11:25:29;5.70;;;3.00;;
56752;SDS011;42627;42.646;23.642;2022-07-05T11:27:34;4.68;;;2.42;;
56752;SDS011;42627;42.646;23.642;2022-07-05T11:32:04;5.53;;;3.03;;
56752;SDS011;42627;42.646;23.642;2022-07-05T11:36:29;7.03;;;3.17;;
56752;SDS011;42627;42.646;23.642;2022-07-05T11:38:31;4.82;;;2.80;;
56752;SDS011;42627;42.646;23.642;2022-07-05T11:40:32;5.18;;;3.42;;
56752;SDS011;42627;42.646;23.642;2022-07-05T11:42:35;4.80;;;3.05;;
56752;SDS011;42627;42.646;23.642;2022-07-05T11:44:37;4.85;;;2.90;;
56752;SDS011;42627;42.646;23.642;2022-07-05T11:46:40;4.05;;;2.78;;
56752;SDS011;42627;42.646;23.642;2022-07-05T11:48:42;5.13;;;2.85;;
56752;SDS011;42627;42.646;23.642;2022-07-05T11:54:24;4.50;;;2.65;;
56752;SDS011;42627;42.646;23.642;2022-07-05T11:56:26;6.15;;;2.67;;
56752;SDS011;42627;42.646;23.642;2022-07-05T11:58:31;4.95;;;2.65;;
56752;SDS011;42627;42.646;23.642;2022-07-05T12:00:33;5.10;;;3.15;;
56752;SDS011;42627;42.646;23.642;2022-07-05T12:02:44;4.63;;;2.92;;
56752;SDS011;42627;42.646;23.642;2022-07-05T12:05:03;4.57;;;2.78;;
56752;SDS011;42627;42.646;23.642;2022-07-05T12:07:04;4.60;;;2.85;;
56752;SDS011;42627;42.646;23.642;2022-07-05T12:09:04;7.03;;;2.75;;
56752;SDS011;42627;42.646;23.642;2022-07-05T12:11:05;5.20;;;2.90;;
56752;SDS011;42627;42.646;23.642;2022-07-05T12:13:25;5.85;;;3.17;;
56752;SDS011;42627;42.646;23.642;2022-07-05T12:15:25;4.32;;;2.70;;
56752;SDS011;42627;42.646;23.642;2022-07-05T12:17:26;4.43;;;2.92;;
56752;SDS011;42627;42.646;23.642;2022-07-05T12:19:32;5.22;;;2.90;;
56752;SDS011;42627;42.646;23.642;2022-07-05T12:21:33;5.45;;;3.08;;
56752;SDS011;42627;42.646;23.642;2022-07-05T12:23:34;5.22;;;3.30;;
56752;SDS011;42627;42.646;23.642;2022-07-05T12:25:34;6.03;;;2.85;;
56752;SDS011;42627;42.646;23.642;2022-07-05T12:27:37;8.38;;;3.20;;
56752;SDS011;42627;42.646;23.642;2022-07-05T12:29:39;4.07;;;2.85;;
56752;SDS011;42627;42.646;23.642;2022-07-05T12:31:58;3.90;;;2.65;;
56752;SDS011;42627;42.646;23.642;2022-07-05T12:34:16;3.80;;;2.95;;
56752;SDS011;42627;42.646;23.642;2022-07-05T12:36:21;10.27;;;3.83;;
56752;SDS011;42627;42.646;23.642;2022-07-05T12:38:28;4.95;;;2.88;;
56752;SDS011;42627;42.646;23.642;2022-07-05T12:40:29;5.53;;;2.67;;
56752;SDS011;42627;42.646;23.642;2022-07-05T12:42:31;4.85;;;3.30;;
56752;SDS011;42627;42.646;23.642;2022-07-05T12:44:35;4.63;;;2.97;;
56752;SDS011;42627;42.646;23.642;2022-07-05T12:46:36;6.05;;;2.92;;
56752;SDS011;42627;42.646;23.642;2022-07-05T12:48:40;4.53;;;2.97;;
56752;SDS011;42627;42.646;23.642;2022-07-05T12:50:50;5.35;;;2.97;;
56752;SDS011;42627;42.646;23.642;2022-07-05T12:52:59;5.13;;;2.90;;
56752;SDS011;42627;42.646;23.642;2022-07-05T12:55:09;6.65;;;3.05;;
56752;SDS011;42627;42.646;23.642;2022-07-05T12:57:29;5.32;;;2.35;;
56752;SDS011;42627;42.646;23.642;2022-07-05T13:01:59;4.55;;;2.70;;
56752;SDS011;42627;42.646;23.642;2022-07-05T13:04:05;3.55;;;2.38;;
56752;SDS011;42627;42.646;23.642;2022-07-05T13:06:18;4.38;;;2.55;;
56752;SDS011;42627;42.646;23.642;2022-07-05T13:08:37;5.45;;;2.83;;
56752;SDS011;42627;42.646;23.642;2022-07-05T13:10:45;4.80;;;2.80;;
56752;SDS011;42627;42.646;23.642;2022-07-05T13:12:47;4.82;;;2.22;;
56752;SDS011;42627;42.646;23.642;2022-07-05T13:14:49;4.90;;;2.60;;
56752;SDS011;42627;42.646;23.642;2022-07-05T13:16:58;3.47;;;2.40;;
56752;SDS011;42627;42.646;23.642;2022-07-05T13:19:10;4.63;;;2.65;;
56752;SDS011;42627;42.646;23.642;2022-07-05T13:21:20;5.22;;;2.83;;
56752;SDS011;42627;42.646;23.642;2022-07-05T13:23:21;4.75;;;2.60;;
56752;SDS011;42627;42.646;23.642;2022-07-05T13:25:22;4.65;;;2.72;;
56752;SDS011;42627;42.646;23.642;2022-07-05T13:27:26;5.82;;;2.45;;
56752;SDS011;42627;42.646;23.642;2022-07-05T13:31:48;4.00;;;2.45;;
56752;SDS011;42627;42.646;23.642;2022-07-05T13:33:49;4.93;;;2.45;;
56752;SDS011;42627;42.646;23.642;2022-07-05T13:35:50;4.78;;;2.75;;
56752;SDS011;42627;42.646;23.642;2022-07-05T13:37:51;4.38;;;2.65;;
56752;SDS011;42627;42.646;23.642;2022-07-05T13:39:51;4.80;;;3.05;;
56752;SDS011;42627;42.646;23.642;2022-07-05T13:41:52;4.78;;;2.78;;
56752;SDS011;42627;42.646;23.642;2022-07-05T13:43:54;5.20;;;2.55;;
56752;SDS011;42627;42.646;23.642;2022-07-05T13:45:57;5.45;;;2.80;;
56752;SDS011;42627;42.646;23.642;2022-07-05T13:47:58;6.38;;;2.60;;
56752;SDS011;42627;42.646;23.642;2022-07-05T13:49:58;4.57;;;2.80;;
56752;SDS011;42627;42.646;23.642;2022-07-05T13:52:22;6.15;;;2.55;;